• Join FlightAware (Why Join?)
  • Login
  • US Flag 
04:27AM EST


 

Airport Tracker/Info


-or-


 

Live Flight TrackerFlight Track Log ✈ KAP291 ✈ 27-Jun-2013 ✈ KBOS - KMVY

Flight Track Log - Related Links

Times and Time Zones

All times are in EDT time to prevent confusion due to time zone crossing. See the KAP291 flight status page for this flight to view local times or setup timezone preferences in your user account.

Time Position Orientation Groundspeed Altitude Reporting Facility
EDT Latitude Longitude Course Direction KTS MPH feet Rate Location/Type
05:27PM 42.3667 -70.9833 132° Southeast 84 97 500  Level KA90
05:28PM 42.3333 -70.9333 132° Southeast 126 145 1,200 480 Climbing KA90
05:29PM 42.3167 -70.8833 114° Southeast 126 145 1,700 540 Climbing KA90
05:30PM 42.3000 -70.8500 124° Southeast 123 142 2,300 600 Climbing KA90
05:31PM 42.2667 -70.8333 160° South 113 130 3,000 600 Climbing KA90
05:32PM 42.2333 -70.8333 180° South 115 132 3,600 600 Climbing KA90
05:33PM 42.2000 -70.8167 160° South 118 136 4,200 540 Climbing KA90
05:34PM 42.1667 -70.8167 180° South 120 138 4,700 360 Climbing KA90
05:35PM 42.1333 -70.8000 160° South 134 154 5,000 120 Climbing KA90
05:36PM 42.1000 -70.8000 180° South 153 176 5,000  Level KA90
05:38PM 42.0440 -70.8062 185° South  Level FlightAware Approximate
05:45PM 41.8134 -70.7376 161° South  Level Estimated
05:46PM 41.7797 -70.7358 178° South  Level FlightAware Approximate
05:47PM 41.7460 -70.7340 178° South  Level FlightAware Approximate
05:48PM 41.7133 -70.7228 164° South  Level Estimated
05:49PM 41.6807 -70.7114 165° South  Level FlightAware Approximate
05:50PM 41.6480 -70.7001 165° South  Level FlightAware Approximate
05:51PM 41.6154 -70.6887 165° South  Level FlightAware Approximate
05:52PM 41.5827 -70.6776 164° South  Level Estimated
05:53PM 41.5502 -70.6652 164° South  Level FlightAware Approximate
05:54PM 41.5178 -70.6528 164° South  Level FlightAware Approximate
05:55PM 41.4854 -70.6405 164° South  Level FlightAware Approximate
05:56PM 41.4524 -70.6309 163° South  Level Estimated
05:57PM 41.4204 -70.6166 161° South  Level FlightAware Approximate
05:58PM 41.3934 -70.6139 163° South  Level Estimated
05:59PM 41.3934 -70.6139 163° South  Level Estimated
06:00PM 41.3934 -70.6139 163° South  Level Estimated
06:01PM 41.3934 -70.6139 163° South  Level Estimated
06:02PM 41.3934 -70.6139 163° South  Level Estimated